Time;durP1;ratioP1;P1;durP2;ratioP2;P2;SDS_P1;SDS_P2;PMS_P1;PMS_P2;Temp;Humidity;BMP_temperature;BMP_pressure;BME280_temperature;BME280_humidity;BME280_pressure;Samples;Min_cycle;Max_cycle;Signal;HPM_P1;HPM_P2
2020/12/25 00:01:54;;;;;;;4.35;2.60;;;4.40;99.90;;;;;;4973138;28;20485;-67
2020/12/25 00:04:20;;;;;;;4.80;2.90;;;4.40;99.90;;;;;;4973647;28;20051;-67
2020/12/25 00:06:47;;;;;;;4.35;2.70;;;4.30;99.90;;;;;;4973800;28;20489;-68
2020/12/25 00:09:13;;;;;;;4.70;2.70;;;4.40;99.90;;;;;;4973611;28;20409;-67
2020/12/25 00:11:40;;;;;;;6.57;2.60;;;4.30;99.90;;;;;;4974105;28;20050;-67
2020/12/25 00:14:06;;;;;;;6.53;2.92;;;4.30;99.90;;;;;;4973944;28;20047;-68
2020/12/25 00:16:33;;;;;;;4.30;2.60;;;4.20;99.90;;;;;;4955249;28;20465;-68
2020/12/25 00:18:59;;;;;;;4.60;2.55;;;4.20;99.90;;;;;;4973319;28;20058;-67
2020/12/25 00:21:26;;;;;;;3.58;2.22;;;4.30;99.90;;;;;;4973759;28;20051;-67
2020/12/25 00:23:52;;;;;;;4.80;2.85;;;4.30;99.90;;;;;;4972951;28;20359;-68
2020/12/25 00:26:29;;;;;;;6.10;3.08;;;4.20;99.90;;;;;;4974196;28;20053;-68
2020/12/25 00:28:57;;;;;;;3.72;2.53;;;4.20;99.90;;;;;;4973865;28;20080;-67
2020/12/25 00:31:29;;;;;;;4.80;2.75;;;4.20;99.90;;;;;;4977439;28;20501;-67
2020/12/25 00:33:56;;;;;;;;;;;4.10;99.90;;;;;;4973786;28;20054;-67
2020/12/25 00:36:27;;;;;;;4.10;2.45;;;4.10;99.90;;;;;;4973435;28;19926;-68
2020/12/25 00:38:54;;;;;;;3.92;2.55;;;4.10;99.90;;;;;;4973353;28;20046;-68
2020/12/25 00:41:22;;;;;;;4.25;2.83;;;4.20;99.90;;;;;;4984328;28;20050;-69
2020/12/25 00:43:49;;;;;;;5.10;3.00;;;4.20;99.90;;;;;;4956193;28;20401;-67
2020/12/25 00:46:16;;;;;;;4.22;2.70;;;4.20;99.90;;;;;;4973268;28;20092;-68
2020/12/25 00:48:43;;;;;;;5.03;3.05;;;4.10;99.90;;;;;;4973378;28;20417;-69
2020/12/25 00:51:21;;;;;;;5.90;3.40;;;4.10;99.90;;;;;;4973196;28;20463;-69
2020/12/25 00:53:48;;;;;;;4.90;3.20;;;4.10;99.90;;;;;;4972706;28;20047;-70
2020/12/25 00:56:15;;;;;;;4.78;3.08;;;4.10;99.90;;;;;;4972335;28;20058;-67
2020/12/25 00:58:43;;;;;;;4.68;3.03;;;4.10;99.90;;;;;;4955065;28;20047;-69
2020/12/25 01:01:12;;;;;;;5.80;3.42;;;4.10;99.90;;;;;;4971881;28;20156;-69
2020/12/25 01:03:41;;;;;;;6.88;3.78;;;4.10;99.90;;;;;;4972715;28;20129;-69
2020/12/25 01:06:15;;;;;;;5.95;3.35;;;4.00;99.90;;;;;;4973040;28;20060;-68
2020/12/25 01:08:43;;;;;;;4.88;2.90;;;4.10;99.90;;;;;;4973021;28;20498;-69
2020/12/25 01:11:11;;;;;;;4.72;2.95;;;4.10;99.90;;;;;;4972623;28;20106;-71
2020/12/25 01:13:39;;;;;;;6.53;3.60;;;4.00;99.90;;;;;;4955604;28;20058;-70
2020/12/25 01:16:08;;;;;;;9.55;4.18;;;4.00;99.90;;;;;;4970228;28;20043;-72
2020/12/25 01:18:35;;;;;;;5.75;3.45;;;4.00;99.90;;;;;;4973276;28;20416;-71
2020/12/25 01:21:02;;;;;;;5.20;3.13;;;4.00;99.90;;;;;;4972090;28;20122;-70
2020/12/25 01:23:29;;;;;;;4.93;3.00;;;4.00;99.90;;;;;;4972455;28;20420;-70
2020/12/25 01:25:56;;;;;;;4.40;3.20;;;3.90;99.90;;;;;;4971840;28;20061;-71
2020/12/25 01:28:22;;;;;;;7.30;3.45;;;3.90;99.90;;;;;;4972702;28;20133;-71
2020/12/25 01:30:49;;;;;;;4.88;3.20;;;3.80;99.90;;;;;;4972335;28;20493;-70
2020/12/25 01:33:15;;;;;;;7.07;3.35;;;3.80;99.90;;;;;;4972673;28;20062;-70
2020/12/25 01:35:42;;;;;;;5.10;3.30;;;3.70;99.90;;;;;;4972851;28;20080;-71
2020/12/25 01:38:09;;;;;;;5.45;3.65;;;3.70;99.90;;;;;;4973290;28;20042;-71
2020/12/25 01:40:35;;;;;;;4.65;3.25;;;3.70;99.90;;;;;;4977649;28;20047;-70
2020/12/25 01:43:01;;;;;;;7.32;4.10;;;3.70;99.90;;;;;;4978668;28;20133;-71
2020/12/25 01:45:28;;;;;;;6.63;3.83;;;3.50;99.90;;;;;;4969936;28;20057;-71
2020/12/25 01:47:55;;;;;;;5.90;4.00;;;3.60;99.90;;;;;;4972184;28;20053;-70
2020/12/25 01:50:23;;;;;;;6.88;3.67;;;3.60;99.90;;;;;;4954972;28;20055;-70
2020/12/25 01:52:53;;;;;;;7.03;3.97;;;3.60;99.90;;;;;;4971909;28;20616;-70
2020/12/25 01:55:25;;;;;;;6.93;4.20;;;3.50;99.90;;;;;;4971742;28;20051;-71
2020/12/25 01:57:55;;;;;;;6.05;3.97;;;3.40;99.90;;;;;;4954397;28;20055;-71
2020/12/25 02:00:23;;;;;;;6.63;3.53;;;3.40;99.90;;;;;;4970883;28;20057;-70
2020/12/25 02:02:50;;;;;;;6.55;3.88;;;3.30;99.90;;;;;;4971875;28;20133;-71
2020/12/25 02:05:17;;;;;;;7.13;4.07;;;3.30;99.90;;;;;;4971943;28;20059;-70
2020/12/25 02:07:44;;;;;;;5.82;4.00;;;3.20;99.90;;;;;;4971995;28;20042;-71
2020/12/25 02:10:11;;;;;;;7.97;4.45;;;3.20;99.90;;;;;;4972185;28;20566;-71
2020/12/25 02:12:38;;;;;;;7.68;4.47;;;3.10;99.90;;;;;;4981113;28;20458;-71
2020/12/25 02:15:06;;;;;;;8.13;4.85;;;3.10;99.90;;;;;;4971823;28;20431;-67
2020/12/25 02:17:32;;;;;;;8.43;4.65;;;3.10;99.90;;;;;;4953401;28;20047;-68
2020/12/25 02:20:02;;;;;;;8.32;4.68;;;3.00;99.90;;;;;;4972091;28;20053;-68
2020/12/25 02:22:31;;;;;;;7.03;4.15;;;2.90;99.90;;;;;;4971388;28;20043;-70
2020/12/25 02:24:58;;;;;;;8.32;4.82;;;2.90;99.90;;;;;;4978354;28;20412;-71
2020/12/25 02:27:24;;;;;;;9.55;4.88;;;2.90;99.90;;;;;;4976303;28;20162;-69
2020/12/25 02:29:51;;;;;;;9.15;4.35;;;3.00;99.90;;;;;;4971843;28;20541;-70
2020/12/25 02:32:17;;;;;;;7.78;4.88;;;3.00;99.90;;;;;;4970323;28;20138;-70
2020/12/25 02:34:44;;;;;;;8.25;4.43;;;3.00;99.90;;;;;;4971254;28;20047;-71
2020/12/25 02:37:11;;;;;;;11.85;5.57;;;3.00;99.90;;;;;;4972116;28;20064;-71
2020/12/25 02:39:37;;;;;;;10.23;4.80;;;3.00;99.90;;;;;;4971486;28;20053;-69
2020/12/25 02:42:04;;;;;;;8.95;4.78;;;3.00;99.90;;;;;;4968140;28;20381;-70
2020/12/25 02:44:30;;;;;;;7.95;4.65;;;2.90;99.90;;;;;;4971775;28;20051;-69
2020/12/25 02:46:57;;;;;;;12.05;5.07;;;2.90;99.90;;;;;;4969846;28;20051;-70
2020/12/25 02:49:23;;;;;;;8.15;4.90;;;2.80;99.90;;;;;;4969862;28;20050;-69
2020/12/25 02:51:49;;;;;;;9.35;4.93;;;2.80;99.90;;;;;;4967567;28;20051;-70
2020/12/25 02:54:16;;;;;;;8.32;4.57;;;2.70;99.90;;;;;;4971363;28;20086;-70
2020/12/25 02:56:42;;;;;;;10.20;5.47;;;2.80;99.90;;;;;;4971110;28;20051;-68
2020/12/25 02:59:10;;;;;;;11.63;5.72;;;2.70;99.90;;;;;;4968571;28;20051;-70
2020/12/25 03:01:36;;;;;;;9.82;5.78;;;2.70;99.90;;;;;;4970781;28;20055;-70
2020/12/25 03:04:02;;;;;;;9.57;4.88;;;2.70;99.90;;;;;;4971233;28;20046;-70
2020/12/25 03:06:29;;;;;;;7.78;4.90;;;2.70;99.90;;;;;;4969891;28;20473;-71
2020/12/25 03:08:56;;;;;;;9.07;5.10;;;2.60;99.90;;;;;;4971496;28;20077;-71
2020/12/25 03:11:23;;;;;;;9.18;5.15;;;2.50;99.90;;;;;;4970862;28;20524;-70
2020/12/25 03:13:50;;;;;;;9.57;4.60;;;2.40;99.90;;;;;;4971180;28;20115;-71
2020/12/25 03:16:16;;;;;;;8.73;4.63;;;2.40;99.90;;;;;;4971565;28;20074;-68
2020/12/25 03:18:43;;;;;;;11.05;5.28;;;2.40;99.90;;;;;;4971779;28;20090;-69
2020/12/25 03:21:10;;;;;;;9.55;5.22;;;2.40;99.90;;;;;;4970456;28;20107;-69
2020/12/25 03:23:37;;;;;;;11.60;5.00;;;2.30;99.90;;;;;;4971502;28;20050;-70
2020/12/25 03:26:03;;;;;;;13.30;5.55;;;2.30;99.90;;;;;;4968875;28;20058;-71
2020/12/25 03:28:29;;;;;;;10.98;5.65;;;2.20;99.90;;;;;;4975333;28;20055;-69
2020/12/25 03:30:56;;;;;;;11.05;5.70;;;2.30;99.90;;;;;;4971136;28;20046;-69
2020/12/25 03:33:22;;;;;;;10.70;5.68;;;2.30;99.90;;;;;;4974709;28;20102;-68
2020/12/25 03:35:50;;;;;;;10.98;5.60;;;2.20;99.90;;;;;;4974931;28;20143;-70
2020/12/25 03:38:17;;;;;;;9.60;5.55;;;2.30;99.90;;;;;;4957694;28;20047;-69
2020/12/25 03:40:44;;;;;;;9.93;5.93;;;2.40;99.90;;;;;;4974353;28;20043;-71
2020/12/25 03:43:10;;;;;;;11.25;6.25;;;2.40;99.90;;;;;;4969314;28;20050;-69
2020/12/25 03:45:37;;;;;;;9.70;6.05;;;2.40;99.90;;;;;;4974679;28;20050;-69
2020/12/25 03:48:03;;;;;;;11.60;5.80;;;2.50;99.90;;;;;;4965584;28;20063;-69
2020/12/25 03:50:30;;;;;;;9.63;5.75;;;2.50;99.90;;;;;;4974632;28;20074;-70
2020/12/25 03:52:58;;;;;;;11.98;5.43;;;2.50;99.90;;;;;;4974239;28;20062;-70
2020/12/25 03:55:24;;;;;;;10.73;6.07;;;2.50;99.90;;;;;;4974452;28;20053;-69
2020/12/25 03:57:51;;;;;;;10.82;5.97;;;2.40;99.90;;;;;;4957352;28;20480;-70
2020/12/25 04:00:17;;;;;;;11.70;6.05;;;2.30;99.90;;;;;;4974385;28;20129;-69
2020/12/25 04:02:45;;;;;;;9.05;5.25;;;2.30;99.90;;;;;;4974734;28;20073;-70
2020/12/25 04:05:11;;;;;;;9.13;5.28;;;2.30;99.90;;;;;;4974673;28;20163;-70
2020/12/25 04:07:38;;;;;;;11.63;5.30;;;2.40;99.90;;;;;;4973874;28;20043;-70
2020/12/25 04:10:04;;;;;;;8.63;4.78;;;2.30;99.90;;;;;;4974374;28;20069;-70
2020/12/25 04:12:31;;;;;;;9.40;4.68;;;2.30;99.90;;;;;;4972944;28;20077;-70
2020/12/25 04:14:57;;;;;;;8.57;4.65;;;2.40;99.90;;;;;;4974516;28;20047;-71
2020/12/25 04:17:23;;;;;;;7.85;4.53;;;2.30;99.90;;;;;;4974135;28;20516;-71
2020/12/25 04:19:50;;;;;;;6.90;4.32;;;2.30;99.90;;;;;;4974580;28;20046;-71
2020/12/25 04:22:16;;;;;;;9.38;4.55;;;2.30;99.90;;;;;;4973106;28;20043;-69
2020/12/25 04:24:43;;;;;;;9.30;4.38;;;2.30;99.90;;;;;;4974015;28;20051;-71
2020/12/25 04:27:10;;;;;;;9.45;5.15;;;2.30;99.90;;;;;;4973936;28;20062;-71
2020/12/25 04:29:37;;;;;;;8.18;4.70;;;2.30;99.90;;;;;;4973260;28;20043;-71
2020/12/25 04:32:03;;;;;;;9.77;5.03;;;2.30;99.90;;;;;;4973617;28;20051;-71
2020/12/25 04:34:30;;;;;;;9.45;5.18;;;2.30;99.90;;;;;;4972876;28;20507;-71
2020/12/25 04:36:57;;;;;;;8.63;5.03;;;2.30;99.90;;;;;;4972028;28;20047;-71
2020/12/25 04:39:23;;;;;;;9.13;4.70;;;2.30;99.90;;;;;;4973836;28;20378;-71
2020/12/25 04:41:50;;;;;;;10.10;5.30;;;2.40;99.90;;;;;;4973091;28;20072;-71
2020/12/25 04:44:16;;;;;;;7.95;4.93;;;2.40;99.90;;;;;;4972859;28;20151;-70
2020/12/25 04:46:43;;;;;;;8.85;5.40;;;2.50;99.90;;;;;;4972734;28;20055;-71
2020/12/25 04:49:09;;;;;;;9.50;5.25;;;2.50;99.90;;;;;;4973755;28;20093;-70
2020/12/25 04:51:36;;;;;;;9.68;5.00;;;2.50;99.90;;;;;;4972429;28;20061;-70
2020/12/25 04:54:02;;;;;;;9.70;5.30;;;2.50;99.90;;;;;;4956118;28;20052;-71
2020/12/25 04:56:29;;;;;;;10.77;5.35;;;2.50;99.90;;;;;;4954465;28;20043;-71
2020/12/25 04:58:57;;;;;;;11.02;5.53;;;2.50;99.90;;;;;;4972987;28;20054;-70
2020/12/25 05:01:23;;;;;;;8.43;5.07;;;2.60;99.90;;;;;;4972781;28;20057;-71
2020/12/25 05:03:49;;;;;;;8.15;5.32;;;2.60;99.90;;;;;;4972850;28;20046;-70
2020/12/25 05:06:18;;;;;;;9.25;5.85;;;2.60;99.90;;;;;;4972787;28;20156;-71
2020/12/25 05:08:49;;;;;;;11.07;5.60;;;2.50;99.90;;;;;;4972832;28;20527;-70
2020/12/25 05:11:18;;;;;;;8.02;4.25;;;2.50;99.90;;;;;;4972123;28;20051;-71
2020/12/25 05:13:45;;;;;;;9.25;5.63;;;2.50;99.90;;;;;;4973716;28;20058;-70
2020/12/25 05:16:13;;;;;;;9.32;5.75;;;2.50;99.90;;;;;;4971741;28;20055;-71
2020/12/25 05:18:42;;;;;;;14.00;6.82;;;2.50;99.90;;;;;;4972915;28;20054;-70
2020/12/25 05:21:11;;;;;;;10.70;6.22;;;2.50;99.90;;;;;;4972102;28;20055;-70
2020/12/25 05:23:39;;;;;;;10.57;5.82;;;2.50;99.90;;;;;;4955744;28;20046;-71
2020/12/25 05:26:07;;;;;;;11.45;6.75;;;2.50;99.90;;;;;;4955281;28;20058;-71
2020/12/25 05:28:43;;;;;;;11.15;6.38;;;2.60;99.90;;;;;;4972486;28;20063;-70
2020/12/25 05:31:12;;;;;;;14.93;6.35;;;2.60;99.90;;;;;;4972044;28;20054;-70
2020/12/25 05:33:39;;;;;;;11.43;6.13;;;2.60;99.90;;;;;;4972946;28;20469;-71
2020/12/25 05:36:09;;;;;;;11.48;6.75;;;2.60;99.90;;;;;;4969915;28;20576;-69
2020/12/25 05:38:40;;;;;;;13.45;7.30;;;2.60;99.90;;;;;;4973344;28;20058;-71
2020/12/25 05:41:08;;;;;;;11.30;6.55;;;2.60;99.90;;;;;;4954753;28;20058;-71
2020/12/25 05:43:34;;;;;;;13.15;6.75;;;2.60;99.90;;;;;;4955906;28;20042;-71
2020/12/25 05:46:01;;;;;;;12.35;6.63;;;2.60;99.90;;;;;;4966084;28;20389;-71
2020/12/25 05:48:28;;;;;;;12.73;6.70;;;2.60;99.90;;;;;;4969411;28;20061;-71
2020/12/25 05:50:54;;;;;;;12.38;6.53;;;2.70;99.90;;;;;;4972025;28;20039;-70
2020/12/25 05:53:21;;;;;;;11.18;6.63;;;2.80;99.90;;;;;;4972782;28;20055;-71
2020/12/25 05:55:47;;;;;;;14.10;6.85;;;2.80;99.90;;;;;;4971125;28;20042;-71
2020/12/25 05:58:15;;;;;;;10.45;6.07;;;2.80;99.90;;;;;;4968617;28;20061;-71
2020/12/25 06:00:43;;;;;;;12.70;6.90;;;2.80;99.90;;;;;;4969428;28;20374;-70
2020/12/25 06:03:15;;;;;;;10.90;6.20;;;2.80;99.90;;;;;;4972637;28;20584;-71
2020/12/25 06:05:45;;;;;;;12.20;6.53;;;2.80;99.90;;;;;;4954822;28;20050;-70
2020/12/25 06:08:17;;;;;;;12.77;6.78;;;2.80;99.90;;;;;;4972816;28;20077;-71
2020/12/25 06:10:46;;;;;;;9.95;6.00;;;2.90;99.90;;;;;;4972488;28;20047;-71
2020/12/25 06:13:14;;;;;;;9.88;5.85;;;2.90;99.90;;;;;;4971870;28;20058;-71
2020/12/25 06:15:46;;;;;;;12.00;6.43;;;2.90;99.90;;;;;;4971618;28;20042;-70
2020/12/25 06:18:12;;;;;;;;;;;2.80;99.90;;;;;;4972512;28;20057;-70
2020/12/25 06:20:55;;;;;;;11.00;6.40;;;2.80;99.90;;;;;;4971268;28;20288;-71
2020/12/25 06:23:24;;;;;;;9.05;5.82;;;2.80;99.90;;;;;;4971528;28;20081;-70
2020/12/25 06:25:52;;;;;;;11.45;6.25;;;2.90;99.90;;;;;;4972598;28;20503;-70
2020/12/25 06:28:19;;;;;;;10.45;5.93;;;2.90;99.90;;;;;;4972339;28;20062;-70
2020/12/25 06:30:46;;;;;;;11.57;5.75;;;2.90;99.90;;;;;;4972470;28;20046;-71
2020/12/25 06:33:13;;;;;;;8.98;5.53;;;2.90;99.90;;;;;;4970904;28;20065;-71
2020/12/25 06:35:45;;;;;;;10.77;5.90;;;2.90;99.90;;;;;;4971932;28;20166;-70
2020/12/25 06:38:13;;;;;;;;;;;2.90;99.90;;;;;;4972478;28;20760;-71
2020/12/25 06:40:39;;;;;;;9.50;5.97;;;2.80;99.90;;;;;;4971613;28;19922;-71
2020/12/25 06:43:17;;;;;;;11.25;6.50;;;2.80;99.90;;;;;;4958391;28;20051;-71
2020/12/25 06:45:49;;;;;;;13.50;6.50;;;2.80;99.90;;;;;;4970945;28;20046;-71
2020/12/25 06:48:18;;;;;;;10.77;6.95;;;2.80;99.90;;;;;;4971900;28;20051;-70
2020/12/25 06:50:53;;;;;;;11.80;6.55;;;2.80;99.90;;;;;;4952993;28;20042;-70
2020/12/25 06:53:40;;;;;;;10.38;6.45;;;2.80;99.90;;;;;;4972105;28;20710;-71
2020/12/25 06:56:13;;;;;;;13.57;6.40;;;2.80;99.90;;;;;;4960463;28;20066;-70
2020/12/25 06:58:42;;;;;;;10.57;6.57;;;2.80;99.90;;;;;;4971841;28;20051;-70
2020/12/25 07:01:10;;;;;;;11.23;6.88;;;2.80;99.90;;;;;;4974564;28;20082;-70
2020/12/25 07:03:37;;;;;;;14.07;6.63;;;2.80;99.90;;;;;;4958564;28;20177;-70
2020/12/25 07:06:05;;;;;;;10.85;6.28;;;2.80;99.90;;;;;;4958724;28;20062;-71
2020/12/25 07:08:38;;;;;;;11.10;6.45;;;2.90;99.90;;;;;;4969997;28;20061;-71
2020/12/25 07:11:06;;;;;;;12.00;6.72;;;2.90;99.90;;;;;;4975502;28;20473;-71
2020/12/25 07:13:35;;;;;;;11.77;6.53;;;2.90;99.90;;;;;;4975522;28;20057;-70
2020/12/25 07:16:03;;;;;;;12.70;6.32;;;2.90;99.90;;;;;;4975273;28;20057;-71
2020/12/25 07:18:31;;;;;;;12.07;6.70;;;2.90;99.90;;;;;;4974399;28;20050;-70
2020/12/25 07:20:58;;;;;;;12.85;6.63;;;2.90;99.90;;;;;;4973435;28;20568;-69
2020/12/25 07:23:25;;;;;;;10.20;6.55;;;2.90;99.90;;;;;;4975307;28;20049;-70
2020/12/25 07:26:02;;;;;;;11.95;6.53;;;3.00;99.90;;;;;;4975304;28;20417;-70
2020/12/25 07:28:29;;;;;;;12.57;6.78;;;3.00;99.90;;;;;;4974345;28;20050;-69
2020/12/25 07:30:57;;;;;;;11.55;6.45;;;3.00;99.90;;;;;;4974900;28;20055;-71
2020/12/25 07:33:24;;;;;;;9.70;6.13;;;2.90;99.90;;;;;;4957499;28;20055;-71
2020/12/25 07:35:51;;;;;;;11.05;6.97;;;2.90;99.90;;;;;;4961765;28;20130;-70
2020/12/25 07:38:28;;;;;;;12.25;7.20;;;2.90;99.90;;;;;;4963683;28;20137;-71
2020/12/25 07:40:54;;;;;;;11.57;6.70;;;2.90;99.90;;;;;;4957227;28;20058;-71
2020/12/25 07:43:21;;;;;;;13.15;6.90;;;2.90;99.90;;;;;;4974981;28;20051;-71
2020/12/25 07:45:47;;;;;;;12.00;7.25;;;2.90;99.90;;;;;;4974012;28;20051;-71
2020/12/25 07:48:14;;;;;;;12.43;7.40;;;3.00;99.90;;;;;;4975703;28;20271;-70
2020/12/25 07:50:42;;;;;;;15.88;7.57;;;3.00;99.90;;;;;;4974487;28;20054;-70
2020/12/25 07:53:16;;;;;;;14.68;8.15;;;3.10;99.90;;;;;;4957696;28;20050;-71
2020/12/25 07:55:47;;;;;;;16.48;8.60;;;3.10;99.90;;;;;;4964348;28;20054;-71
2020/12/25 07:58:18;;;;;;;12.50;7.75;;;3.10;99.90;;;;;;4971923;28;20161;-70
2020/12/25 08:00:45;;;;;;;11.70;6.70;;;3.10;99.90;;;;;;4973660;28;20409;-69
2020/12/25 08:03:13;;;;;;;13.75;7.55;;;3.10;99.90;;;;;;4974236;28;20810;-71
2020/12/25 08:05:39;;;;;;;13.93;7.13;;;3.10;99.90;;;;;;4974270;28;20471;-70
2020/12/25 08:08:08;;;;;;;11.23;7.07;;;3.10;99.90;;;;;;4972686;28;20074;-68
2020/12/25 08:10:36;;;;;;;16.85;7.93;;;3.10;99.90;;;;;;4972569;28;20073;-70
2020/12/25 08:13:06;;;;;;;11.55;6.90;;;3.10;99.90;;;;;;4972646;28;20062;-70
2020/12/25 08:15:33;;;;;;;13.13;7.65;;;3.10;99.90;;;;;;4973618;28;20051;-71
2020/12/25 08:18:04;;;;;;;15.15;7.75;;;3.10;99.90;;;;;;4973700;28;20050;-70
2020/12/25 08:20:32;;;;;;;13.38;8.05;;;3.10;99.90;;;;;;4973635;28;20130;-71
2020/12/25 08:23:03;;;;;;;14.18;7.75;;;3.10;99.90;;;;;;4973545;28;20047;-71
2020/12/25 08:25:31;;;;;;;12.30;7.70;;;3.20;99.90;;;;;;4956896;28;20047;-71
2020/12/25 08:27:58;;;;;;;12.30;8.02;;;3.10;99.90;;;;;;4973493;28;20489;-71
2020/12/25 08:30:25;;;;;;;14.55;7.97;;;3.20;99.90;;;;;;4956498;28;20130;-69
2020/12/25 08:32:59;;;;;;;13.98;7.90;;;3.20;99.90;;;;;;4972087;28;20050;-69
2020/12/25 08:35:28;;;;;;;15.50;8.82;;;3.30;99.90;;;;;;4973524;28;20107;-70
2020/12/25 08:38:00;;;;;;;13.40;8.98;;;3.30;99.90;;;;;;4973003;28;20429;-70
2020/12/25 08:40:32;;;;;;;13.13;7.38;;;3.30;99.90;;;;;;4973321;28;20042;-68
2020/12/25 08:43:17;;;;;;;14.50;8.23;;;3.20;99.90;;;;;;4973385;28;20047;-69
2020/12/25 08:45:55;;;;;;;14.43;8.63;;;3.10;99.90;;;;;;4967265;28;20054;-69
2020/12/25 08:48:22;;;;;;;15.13;8.77;;;3.20;99.90;;;;;;4973724;28;20058;-71
2020/12/25 08:50:49;;;;;;;14.38;8.80;;;3.20;99.90;;;;;;4973043;28;20042;-69
2020/12/25 08:53:21;;;;;;;13.82;8.23;;;3.20;99.90;;;;;;4973310;28;20047;-70
2020/12/25 08:55:54;;;;;;;12.15;7.78;;;3.20;99.90;;;;;;4956133;28;20055;-70
2020/12/25 08:58:24;;;;;;;12.68;7.45;;;3.30;99.90;;;;;;4953084;29;20134;-71
2020/12/25 09:01:02;;;;;;;12.95;7.85;;;3.30;99.90;;;;;;4955360;28;20043;-71
2020/12/25 09:03:41;;;;;;;12.95;7.05;;;3.30;99.90;;;;;;4973968;28;20404;-72
2020/12/25 09:06:10;;;;;;;15.27;7.15;;;3.40;99.90;;;;;;4972507;28;20080;-72
2020/12/25 09:08:38;;;;;;;11.57;7.63;;;3.40;99.90;;;;;;4954716;28;20129;-71
2020/12/25 09:11:13;;;;;;;10.07;6.55;;;3.30;99.90;;;;;;4973152;28;20126;-69
2020/12/25 09:13:40;;;;;;;11.52;7.20;;;3.30;99.90;;;;;;4973230;28;20046;-72
2020/12/25 09:16:08;;;;;;;10.88;6.35;;;3.40;99.90;;;;;;4969319;28;20051;-70
2020/12/25 09:18:35;;;;;;;11.57;7.38;;;3.50;99.90;;;;;;4972898;28;20051;-71
2020/12/25 09:21:02;;;;;;;10.52;6.30;;;3.40;99.90;;;;;;4955913;28;20065;-70
2020/12/25 09:23:30;;;;;;;10.45;6.60;;;3.40;99.90;;;;;;4972887;28;20047;-72
2020/12/25 09:25:57;;;;;;;11.10;6.57;;;3.40;99.90;;;;;;4951482;28;20115;-71
2020/12/25 09:28:24;;;;;;;10.43;6.60;;;3.50;99.90;;;;;;4973390;28;20066;-65
2020/12/25 09:30:54;;;;;;;10.85;6.07;;;3.60;99.90;;;;;;4968695;28;20563;-68
2020/12/25 09:33:21;;;;;;;10.70;6.57;;;3.60;99.90;;;;;;4955631;28;20137;-68
2020/12/25 09:35:49;;;;;;;9.13;6.00;;;3.50;99.90;;;;;;4971894;28;20043;-67
2020/12/25 09:38:15;;;;;;;12.70;6.60;;;3.50;99.90;;;;;;4971136;28;20054;-68
2020/12/25 09:40:42;;;;;;;10.65;6.93;;;3.40;99.90;;;;;;4973278;28;20047;-69
2020/12/25 09:43:09;;;;;;;9.95;5.88;;;3.50;99.90;;;;;;4973085;28;20398;-68
2020/12/25 09:45:36;;;;;;;11.38;6.47;;;3.60;99.90;;;;;;4972589;28;20042;-67
2020/12/25 09:48:03;;;;;;;11.93;6.03;;;3.70;99.90;;;;;;4972751;28;20050;-67
2020/12/25 09:50:30;;;;;;;13.05;6.65;;;3.60;99.90;;;;;;4972961;28;20423;-68
2020/12/25 09:52:56;;;;;;;10.00;6.40;;;3.60;99.90;;;;;;4973115;28;20057;-68
2020/12/25 09:55:26;;;;;;;10.27;5.90;;;3.60;99.90;;;;;;4977686;28;20041;-67
2020/12/25 09:57:52;;;;;;;9.25;5.90;;;3.60;99.90;;;;;;4973286;28;20591;-68
2020/12/25 10:00:19;;;;;;;9.38;5.70;;;3.60;99.90;;;;;;4972329;28;20047;-65
2020/12/25 10:02:45;;;;;;;9.13;5.18;;;3.70;99.90;;;;;;4955181;28;20047;-68
2020/12/25 10:05:13;;;;;;;8.55;5.22;;;3.80;99.90;;;;;;4967610;28;20159;-68
2020/12/25 10:07:39;;;;;;;8.57;4.80;;;3.70;99.90;;;;;;4955831;28;20448;-68
2020/12/25 10:10:07;;;;;;;9.07;5.25;;;3.70;99.90;;;;;;4972671;28;20561;-65
2020/12/25 10:12:34;;;;;;;9.57;5.47;;;3.80;99.90;;;;;;4972090;28;20061;-69
2020/12/25 10:15:02;;;;;;;9.27;5.60;;;3.80;99.90;;;;;;4972454;28;20055;-69
2020/12/25 10:17:28;;;;;;;9.75;5.53;;;4.00;99.90;;;;;;4969707;28;20057;-69
2020/12/25 10:19:55;;;;;;;11.27;5.50;;;4.10;99.90;;;;;;4972462;28;20053;-67
2020/12/25 10:22:22;;;;;;;9.70;5.40;;;4.30;99.90;;;;;;4971917;28;20058;-68
2020/12/25 10:24:48;;;;;;;5.85;3.70;;;4.50;99.90;;;;;;4972161;28;20038;-68
2020/12/25 10:27:15;;;;;;;7.63;4.07;;;4.60;99.90;;;;;;4972452;28;20420;-69
2020/12/25 10:29:42;;;;;;;6.60;3.90;;;4.70;99.90;;;;;;4965340;28;20046;-70
2020/12/25 10:32:08;;;;;;;5.88;4.00;;;4.90;99.90;;;;;;4971689;28;20077;-69
2020/12/25 10:34:35;;;;;;;6.10;4.10;;;4.90;99.90;;;;;;4975619;28;20122;-68
2020/12/25 10:37:02;;;;;;;6.18;3.53;;;5.00;99.90;;;;;;4960531;28;20501;-68
2020/12/25 10:39:28;;;;;;;6.50;4.00;;;5.00;99.90;;;;;;4978200;28;20062;-69
2020/12/25 10:41:55;;;;;;;7.25;3.58;;;5.00;99.90;;;;;;4976020;28;20049;-69
2020/12/25 10:44:21;;;;;;;5.63;3.50;;;5.10;99.90;;;;;;4979088;28;20043;-71
2020/12/25 10:46:48;;;;;;;7.55;3.53;;;5.10;99.90;;;;;;4978093;28;20050;-70
2020/12/25 10:49:14;;;;;;;5.45;3.15;;;5.10;99.90;;;;;;4978269;28;20047;-71
2020/12/25 10:51:45;;;;;;;7.60;3.30;;;5.10;99.90;;;;;;4977392;28;20047;-70
2020/12/25 10:54:17;;;;;;;5.93;3.50;;;5.00;99.90;;;;;;4972609;28;20061;-70
2020/12/25 10:56:43;;;;;;;6.30;3.28;;;4.90;99.90;;;;;;4972799;28;20068;-70
2020/12/25 10:59:22;;;;;;;5.60;3.60;;;4.80;99.90;;;;;;4970585;28;20106;-70
2020/12/25 11:01:48;;;;;;;6.35;3.53;;;4.70;99.90;;;;;;4972933;28;20050;-69
2020/12/25 11:04:15;;;;;;;5.65;2.70;;;4.60;99.90;;;;;;4978499;28;20086;-70
2020/12/25 11:06:42;;;;;;;4.93;3.00;;;4.10;99.90;;;;;;4957880;28;20051;-71
2020/12/25 11:09:09;;;;;;;5.80;3.38;;;3.90;99.90;;;;;;4977270;28;20059;-70
2020/12/25 11:11:38;;;;;;;4.70;2.90;;;3.80;99.90;;;;;;4976785;28;20051;-70
2020/12/25 11:14:05;;;;;;;5.93;3.10;;;3.80;99.90;;;;;;4978392;28;20055;-70
2020/12/25 11:16:34;;;;;;;4.65;3.03;;;3.80;99.90;;;;;;4978879;28;20055;-71
2020/12/25 11:19:02;;;;;;;7.35;3.58;;;3.80;99.90;;;;;;4965410;28;20082;-69
2020/12/25 11:21:30;;;;;;;5.25;3.63;;;3.90;99.90;;;;;;4960125;28;20054;-70
2020/12/25 11:23:59;;;;;;;7.15;3.90;;;3.90;99.90;;;;;;4976822;28;20045;-69
2020/12/25 11:26:25;;;;;;;8.35;4.10;;;4.00;99.90;;;;;;4974077;28;20064;-71
2020/12/25 11:28:55;;;;;;;5.38;3.50;;;4.00;99.90;;;;;;4977960;28;20493;-70
2020/12/25 11:31:22;;;;;;;5.25;3.28;;;4.00;99.90;;;;;;4977576;28;20073;-70
2020/12/25 11:33:49;;;;;;;5.38;3.10;;;4.00;99.90;;;;;;4978252;28;20058;-67
2020/12/25 11:36:18;;;;;;;7.43;2.88;;;3.80;99.90;;;;;;4977479;28;20505;-70
2020/12/25 11:38:45;;;;;;;6.63;3.00;;;3.70;99.90;;;;;;4978394;28;20143;-69
2020/12/25 11:41:14;;;;;;;4.40;2.70;;;3.70;99.90;;;;;;4976693;28;20054;-70
2020/12/25 11:43:41;;;;;;;5.07;3.10;;;3.70;99.90;;;;;;4961005;28;20409;-69
2020/12/25 11:46:08;;;;;;;5.55;3.35;;;3.70;99.90;;;;;;4975425;28;20489;-71
2020/12/25 11:48:36;;;;;;;5.78;3.15;;;3.80;99.90;;;;;;4974943;28;20062;-70
2020/12/25 11:51:03;;;;;;;5.65;3.17;;;3.80;99.90;;;;;;4974530;28;20050;-71
2020/12/25 11:53:30;;;;;;;5.63;3.25;;;3.80;99.90;;;;;;4974058;28;20461;-72
2020/12/25 11:55:56;;;;;;;5.47;3.35;;;3.90;99.90;;;;;;4976479;28;20416;-71
2020/12/25 11:58:22;;;;;;;5.68;3.35;;;4.00;99.90;;;;;;4974439;28;20047;-70
2020/12/25 12:00:49;;;;;;;5.25;3.20;;;4.10;99.90;;;;;;4971688;28;20050;-71
2020/12/25 12:03:16;;;;;;;5.18;3.55;;;4.20;99.90;;;;;;4972338;28;20054;-69
2020/12/25 12:05:43;;;;;;;7.10;3.50;;;4.30;99.90;;;;;;4974050;28;20512;-70
2020/12/25 12:08:10;;;;;;;7.07;3.78;;;4.40;99.90;;;;;;4973593;28;20058;-69
2020/12/25 12:10:39;;;;;;;6.65;3.85;;;4.60;99.90;;;;;;4951080;28;20042;-71
2020/12/25 12:13:07;;;;;;;6.97;4.13;;;4.80;99.90;;;;;;4974322;28;20058;-71
2020/12/25 12:15:38;;;;;;;7.40;4.00;;;5.10;99.90;;;;;;4972496;28;20062;-70
2020/12/25 12:18:05;;;;;;;7.68;3.67;;;5.30;99.90;;;;;;4955847;28;20082;-71
2020/12/25 12:20:33;;;;;;;7.13;4.13;;;5.30;99.90;;;;;;4966663;28;20043;-72
2020/12/25 12:23:00;;;;;;;9.27;4.30;;;5.40;99.90;;;;;;4973120;28;20047;-68
2020/12/25 12:25:35;;;;;;;7.18;3.70;;;5.30;99.90;;;;;;4957605;28;20058;-70
2020/12/25 12:28:02;;;;;;;5.78;3.13;;;5.10;99.90;;;;;;4957711;28;20244;-71
2020/12/25 12:30:29;;;;;;;7.55;3.72;;;5.00;99.90;;;;;;4974158;28;20462;-70
2020/12/25 12:32:56;;;;;;;11.77;4.03;;;4.70;99.90;;;;;;4955430;28;20050;-71
2020/12/25 12:35:22;;;;;;;6.60;3.53;;;4.40;99.90;;;;;;4954559;28;20122;-71
2020/12/25 12:37:49;;;;;;;6.80;3.25;;;4.40;99.90;;;;;;4972496;28;20512;-71
2020/12/25 12:40:30;;;;;;;6.40;2.97;;;4.40;99.90;;;;;;4973934;28;20046;-71
2020/12/25 12:42:57;;;;;;;6.10;3.45;;;4.30;99.90;;;;;;4957158;28;20050;-70
2020/12/25 12:45:24;;;;;;;5.25;2.90;;;4.40;99.90;;;;;;4972356;28;20049;-69
2020/12/25 12:47:50;;;;;;;5.70;3.30;;;4.40;99.90;;;;;;4971632;28;20051;-71
2020/12/25 12:50:17;;;;;;;5.07;2.58;;;4.30;99.90;;;;;;4971827;28;20062;-72
2020/12/25 12:52:43;;;;;;;6.68;2.75;;;4.30;99.90;;;;;;4969700;28;20057;-69
2020/12/25 12:55:28;;;;;;;4.15;2.03;;;4.20;99.90;;;;;;4956599;28;20058;-71
2020/12/25 12:58:05;;;;;;;5.50;2.47;;;4.10;99.90;;;;;;4972303;28;20569;-71